Fai una donazione per la manutenzione ed il rinnovamento della strumentazione meteorologica e per il sito che la ospita.


Webcam more information Webcam



altri nostri siti meteo:

Previsioni audio clicca per ascoltarePrevisioni audio

RISCHIO INCENDIRischio incendi

PomeziameteoSito sul meteo

MeteopomeziaSito sul meteo

Pomeziameteo DashboardSito sul meteo

Caput FrigorisSito sul meteo

BarcellonameteoSito sul meteo

MeteoipassiSito sul meteo

TortoretometeolidoSito sul meteo

CastelnuovovomanometeoSito sul meteo

MeteogonzagaSito sul meteo

MeteonetworkInvio dai a Meteonetwork

Weather UndergroundInvio dai a Weather Underground

Scarica App android ViterbometeoInvio dai a Weather Underground



Nessuna attenzione richiesta    Non ci sono allerte meteo.

Report METAR

   
LIRV - Viterbo (it-Mil), Italy
Distanza dalla stazione: W 4 km
Dati ricevuti: 17-05-2021 20:55
DATI Obsoleti
Sereno  
Sereno  
   Vento: W 14.8 km/h
Vento: W 14.8 km/h
Temperatura: 15°C
P.to Rugiada: 2°C
Umidita: 42%
Barometro: 1012 hPa
Visibilita: oltre 10 km
dettagli cloud: Sereno
LIRV 171855Z 29008KT CAVOK 15/02 Q1012
LIQN - Rieti, Italy
Distanza dalla stazione: E 59 km
Dati ricevuti: 17-05-2021 19:50
DATI Obsoleti
Sereno  
Sereno  
   Vento: W 9.3 km/h
Vento: W 9.3 km/h
Temperatura: 19°C
P.to Rugiada: 9°C
Umidita: 52%
Barometro: 1012 hPa
Visibilita: oltre 10 km
dettagli cloud: Sereno
LIQN 171750Z 25005KT 210V270 CAVOK 19/09 Q1012
LIRU - Rome/Urbe (it-Af, Italy
Distanza dalla stazione: S 61 km
Dati ricevuti: 17-05-2021 19:50
DATI Obsoleti
Sereno  
Sereno  
   Vento: Sud 5.6 km/h
Vento: Sud 5.6 km/h
Temperatura: 21°C
P.to Rugiada: 9°C
Umidita: 46%
Barometro: 1011 hPa
Visibilita: oltre 10 km
dettagli cloud: Sereno
LIRU 171750Z 17003KT CAVOK 21/09 Q1011
LIRG - Guidonia (it-Afb, Italy
Distanza dalla stazione: SE 68 km
Dati ricevuti: 17-05-2021 19:55
DATI Obsoleti
Poche nuvole  
Poche nuvole  
   Vento: S 5.6 km/h
Vento: S 5.6 km/h
Temperatura: 19°C
P.to Rugiada: 13°C
Umidita: 68%
Barometro: 1012 hPa
Nuvole: Poche nuvole
Visibilita: oltre 10 km
dettagli cloud: Poche nuvole 1219.2 m
LIRG 171755Z 15003KT 9999 FEW040 19/13 Q1012
LIRK - Terminillo Mount, Italy
Distanza dalla stazione: E 70 km
Dati ricevuti: 18-05-2021 04:55
  
  
   Vento: NNW 24.1 km/h
Vento: NNW 24.1 km/h
Temperatura: 2°C
Temperatura Vento: -3°C
P.to Rugiada: -5°C
Umidita: 60%
Barometro: 1017 hPa
LIRK 180255Z AUTO 33013KT //// 02/M05 Q1017
 

Script sviluppato da  Saratoga-weather.org Adattato per il modello da  Weerstation Leuven

Strumentazione usata:

Stazione meteo
Davis VP2

Programma gestore dati meteo
WVIEW

Server per i dati meteo
WDS-5

Davis VP2

WVIEW

WDS-5